createdAt,value
2023-03-29T00:04:41.891Z,5.49
2023-03-29T00:09:44.502Z,5.51
2023-03-29T00:14:42.634Z,5.5
2023-03-29T00:19:43.315Z,5.5
2023-03-29T00:24:41.563Z,5.5
2023-03-29T00:29:41.902Z,5.5
2023-03-29T00:34:42.789Z,5.51
2023-03-29T00:39:46.177Z,5.51
2023-03-29T00:44:54.231Z,5.51
2023-03-29T00:49:44.981Z,5.51
2023-03-29T00:54:44.360Z,5.5
2023-03-29T00:59:56.488Z,5.5
2023-03-29T01:04:47.582Z,5.52
2023-03-29T01:09:44.114Z,5.52
2023-03-29T01:14:45.914Z,5.53
2023-03-29T01:19:44.474Z,5.55
2023-03-29T01:24:47.230Z,5.55
2023-03-29T01:29:50.120Z,5.54
2023-03-29T01:34:45.259Z,5.53
2023-03-29T01:39:48.381Z,5.54
2023-03-29T01:44:52.178Z,5.53
2023-03-29T01:49:45.631Z,5.54
2023-03-29T01:54:45.351Z,5.54
2023-03-29T01:59:44.616Z,5.55
2023-03-29T02:04:48.101Z,5.56
2023-03-29T02:09:44.370Z,5.57
2023-03-29T02:14:41.423Z,5.58
2023-03-29T02:19:41.409Z,5.6
2023-03-29T02:24:49.297Z,5.61
2023-03-29T02:29:46.863Z,5.63
2023-03-29T02:34:44.304Z,5.65
2023-03-29T02:39:42.980Z,5.67
2023-03-29T02:44:43.792Z,5.7
2023-03-29T02:49:41.528Z,5.73
2023-03-29T02:54:45.611Z,5.73
2023-03-29T02:59:44.074Z,5.76
2023-03-29T03:04:51.702Z,5.78
2023-03-29T03:09:41.516Z,5.79
2023-03-29T03:14:41.280Z,5.82
2023-03-29T03:19:45.787Z,5.82
2023-03-29T03:24:41.240Z,5.84
2023-03-29T03:29:46.667Z,5.85
2023-03-29T03:34:41.530Z,5.86
2023-03-29T03:39:43.981Z,5.88
2023-03-29T03:44:45.293Z,5.89
2023-03-29T03:49:45.776Z,5.91
2023-03-29T03:54:41.570Z,5.93
2023-03-29T03:59:49.996Z,5.96
2023-03-29T04:04:41.590Z,5.98
2023-03-29T04:09:43.824Z,5.99
2023-03-29T04:14:43.114Z,6.01
2023-03-29T04:19:42.889Z,6.04
2023-03-29T04:24:41.554Z,6.03
2023-03-29T04:29:45.327Z,6.04
2023-03-29T04:34:45.642Z,6.04
2023-03-29T04:39:45.062Z,6.05
2023-03-29T04:44:43.579Z,6.08
2023-03-29T04:49:44.079Z,6.08
2023-03-29T04:54:45.012Z,6.1
2023-03-29T04:59:43.742Z,6.09
2023-03-29T05:04:42.661Z,6.09
2023-03-29T05:09:41.648Z,6.11
2023-03-29T05:14:41.384Z,6.11
2023-03-29T05:19:41.325Z,6.11
2023-03-29T05:24:42.123Z,6.11
2023-03-29T05:29:41.219Z,6.11
2023-03-29T05:34:41.199Z,6.12
2023-03-29T05:39:50.382Z,6.14
2023-03-29T05:44:41.684Z,6.15
2023-03-29T05:49:42.910Z,6.17
2023-03-29T05:54:41.364Z,6.21
2023-03-29T05:59:43.828Z,6.24
2023-03-29T06:04:41.338Z,6.3
2023-03-29T06:09:41.305Z,6.36
2023-03-29T06:14:41.577Z,6.41
2023-03-29T06:19:41.687Z,6.48
2023-03-29T06:24:41.577Z,6.54
2023-03-29T06:29:41.687Z,6.56
2023-03-29T06:34:41.483Z,6.63
2023-03-29T06:39:41.780Z,6.68
2023-03-29T06:44:45.543Z,6.78
2023-03-29T06:49:46.428Z,6.84
2023-03-29T06:54:41.330Z,6.91
2023-03-29T06:59:41.633Z,6.99
2023-03-29T07:04:41.919Z,7.07
2023-03-29T07:09:41.511Z,7.18
2023-03-29T07:14:41.367Z,7.26
2023-03-29T07:19:41.346Z,7.35
2023-03-29T07:24:41.378Z,7.45
2023-03-29T07:29:43.905Z,7.54
2023-03-29T07:34:45.346Z,7.64
2023-03-29T07:39:46.438Z,7.74
2023-03-29T07:44:41.841Z,7.84
2023-03-29T07:49:42.218Z,7.93
2023-03-29T07:54:42.727Z,8.01
2023-03-29T07:59:41.406Z,8.12
2023-03-29T08:04:41.509Z,8.21
2023-03-29T08:09:43.429Z,8.35
2023-03-29T08:14:44.113Z,8.45
2023-03-29T08:19:50.921Z,8.52
2023-03-29T08:24:41.644Z,8.58
2023-03-29T08:29:41.145Z,8.65
2023-03-29T08:34:43.805Z,8.75
2023-03-29T08:39:42.110Z,8.85
2023-03-29T08:44:50.148Z,8.98
2023-03-29T08:49:42.961Z,9.13
2023-03-29T08:54:44.656Z,9.34
2023-03-29T08:59:47.616Z,9.47
2023-03-29T09:04:47.144Z,9.63
2023-03-29T09:09:44.141Z,9.73
2023-03-29T09:14:52.653Z,9.82
2023-03-29T09:19:47.610Z,9.88
2023-03-29T09:24:47.927Z,9.93
2023-03-29T09:29:49.201Z,10.03
2023-03-29T09:34:45.210Z,10.11
2023-03-29T09:39:42.617Z,10.21
2023-03-29T09:44:44.478Z,10.33
2023-03-29T09:49:44.086Z,10.48
2023-03-29T09:54:41.457Z,10.64
2023-03-29T09:59:44.629Z,10.79
2023-03-29T10:04:45.986Z,10.93
2023-03-29T10:09:43.142Z,11.05
2023-03-29T10:14:45.007Z,11.22
2023-03-29T10:19:41.320Z,11.35
2023-03-29T10:24:42.127Z,11.55
2023-03-29T10:29:47.236Z,11.65
2023-03-29T10:39:41.345Z,11.83
2023-03-29T10:44:45.985Z,11.93
2023-03-29T10:49:43.710Z,11.94
2023-03-29T10:54:41.492Z,11.96
2023-03-29T10:59:47.607Z,11.99
2023-03-29T11:04:47.114Z,12.02
2023-03-29T11:09:46.159Z,12.21
2023-03-29T11:14:45.591Z,12.51
2023-03-29T11:19:57.684Z,12.86
2023-03-29T11:24:55.457Z,13.11
2023-03-29T11:29:54.804Z,13.26
2023-03-29T11:34:55.230Z,13.36
2023-03-29T11:39:49.902Z,13.54
2023-03-29T11:44:43.911Z,13.64
2023-03-29T11:49:45.638Z,13.73
2023-03-29T11:54:44.936Z,13.83
2023-03-29T11:59:56.650Z,13.84
2023-03-29T12:04:48.182Z,13.85
2023-03-29T12:09:47.154Z,13.99
2023-03-29T12:14:57.186Z,14.1
2023-03-29T12:19:45.076Z,14.11
2023-03-29T12:24:45.848Z,14.15
2023-03-29T12:29:48.010Z,14.16
2023-03-29T12:34:54.253Z,14.19
2023-03-29T12:39:44.765Z,14.16
2023-03-29T12:44:41.436Z,14.08
2023-03-29T12:49:42.805Z,13.91
2023-03-29T12:54:42.727Z,13.88
2023-03-29T12:59:50.750Z,13.88
2023-03-29T13:04:52.970Z,13.96
2023-03-29T13:09:52.079Z,14
2023-03-29T13:14:45.981Z,14.07
2023-03-29T13:19:48.893Z,14.1
2023-03-29T13:24:55.928Z,14.22
2023-03-29T13:29:57.099Z,14.37
2023-03-29T13:34:50.349Z,14.38
2023-03-29T13:39:51.448Z,14.38
2023-03-29T13:44:46.231Z,14.33
2023-03-29T13:49:42.388Z,14.34
2023-03-29T13:54:45.661Z,14.31
2023-03-29T13:59:47.442Z,14.24
2023-03-29T14:04:54.375Z,14.27
2023-03-29T14:09:45.210Z,14.29
2023-03-29T14:14:58.241Z,14.26
2023-03-29T14:19:42.499Z,14.19
2023-03-29T14:24:44.824Z,14.14
2023-03-29T14:29:41.839Z,14.09
2023-03-29T14:34:41.892Z,14.01
2023-03-29T14:39:44.978Z,13.97
2023-03-29T14:44:50.383Z,13.95
2023-03-29T14:49:46.942Z,13.94
2023-03-29T14:54:42.571Z,13.85
2023-03-29T14:59:48.130Z,13.76
2023-03-29T15:04:49.302Z,13.69
2023-03-29T15:09:49.166Z,13.61
2023-03-29T15:14:49.784Z,13.56
2023-03-29T15:19:45.844Z,13.52
2023-03-29T15:24:45.895Z,13.49
2023-03-29T15:29:45.470Z,13.45
2023-03-29T15:34:42.107Z,13.47
2023-03-29T15:39:48.561Z,13.46
2023-03-29T15:44:42.067Z,13.5
2023-03-29T15:49:47.218Z,13.44
2023-03-29T15:54:43.568Z,13.39
2023-03-29T15:59:45.377Z,13.32
2023-03-29T16:04:41.283Z,13.25
2023-03-29T16:09:43.649Z,13.16
2023-03-29T16:14:43.051Z,13.09
2023-03-29T16:19:41.041Z,13.02
2023-03-29T16:24:41.332Z,12.98
2023-03-29T16:29:41.095Z,12.93
2023-03-29T16:34:47.581Z,12.87
2023-03-29T16:39:41.838Z,12.84
2023-03-29T16:44:41.102Z,12.78
2023-03-29T16:49:43.032Z,12.74
2023-03-29T16:54:42.628Z,12.68
2023-03-29T16:59:42.470Z,12.64
2023-03-29T17:04:41.021Z,12.61
2023-03-29T17:09:41.654Z,12.57
2023-03-29T17:14:41.916Z,12.53
2023-03-29T17:19:41.279Z,12.48
2023-03-29T17:24:46.686Z,12.43
2023-03-29T17:29:55.202Z,12.38
2023-03-29T17:35:01.077Z,12.35
2023-03-29T17:39:43.336Z,12.31
2023-03-29T17:44:41.145Z,12.26
2023-03-29T17:49:41.225Z,12.22
2023-03-29T17:54:41.490Z,12.16
2023-03-29T17:59:42.138Z,12.11
2023-03-29T18:04:42.098Z,12.06
2023-03-29T18:09:41.301Z,11.98
2023-03-29T18:14:41.233Z,11.93
2023-03-29T18:19:42.628Z,11.84
2023-03-29T18:24:42.821Z,11.77
2023-03-29T18:29:41.607Z,11.69
2023-03-29T18:34:41.556Z,11.62
2023-03-29T18:39:41.279Z,11.56
2023-03-29T18:44:41.158Z,11.51
2023-03-29T18:49:41.871Z,11.45
2023-03-29T18:54:41.525Z,11.39
2023-03-29T18:59:41.117Z,11.34
2023-03-29T19:04:45.596Z,11.28
2023-03-29T19:09:43.134Z,11.24
2023-03-29T19:14:41.331Z,11.2
2023-03-29T19:19:41.311Z,11.15
2023-03-29T19:24:41.260Z,11.1
2023-03-29T19:29:41.418Z,11.06
2023-03-29T19:34:41.598Z,11.02
2023-03-29T19:39:54.552Z,11
2023-03-29T19:44:41.287Z,10.96
2023-03-29T19:49:41.897Z,10.95
2023-03-29T19:54:43.017Z,10.9
2023-03-29T19:59:43.039Z,10.85
2023-03-29T20:04:41.641Z,10.79
2023-03-29T20:09:43.297Z,10.74
2023-03-29T20:14:43.154Z,10.7
2023-03-29T20:19:44.027Z,10.67
2023-03-29T20:24:42.506Z,10.62
2023-03-29T20:29:41.798Z,10.58
2023-03-29T20:34:41.176Z,10.56
2023-03-29T20:39:41.018Z,10.55
2023-03-29T20:44:41.138Z,10.54
2023-03-29T20:49:44.920Z,10.52
2023-03-29T20:54:41.050Z,10.51
2023-03-29T20:59:41.879Z,10.52
2023-03-29T21:04:48.456Z,10.54
2023-03-29T21:09:44.559Z,10.55
2023-03-29T21:14:41.600Z,10.55
2023-03-29T21:19:41.305Z,10.55
2023-03-29T21:24:40.997Z,10.55
2023-03-29T21:29:41.299Z,10.56
2023-03-29T21:34:41.137Z,10.55
2023-03-29T21:39:43.639Z,10.56
2023-03-29T21:44:41.132Z,10.57
2023-03-29T21:49:44.064Z,10.6
2023-03-29T21:54:42.562Z,10.66
2023-03-29T21:59:41.032Z,10.7
2023-03-29T22:04:43.555Z,10.73
2023-03-29T22:09:43.836Z,10.75
2023-03-29T22:14:46.534Z,10.8
2023-03-29T22:19:41.670Z,10.85
2023-03-29T22:24:41.245Z,10.88
2023-03-29T22:29:41.537Z,10.87
2023-03-29T22:34:44.843Z,10.87
2023-03-29T22:39:47.926Z,10.88
2023-03-29T22:44:41.518Z,10.83
2023-03-29T22:49:41.138Z,10.83
2023-03-29T22:54:48.299Z,10.84
2023-03-29T22:59:41.322Z,10.87
2023-03-29T23:04:42.500Z,10.9
2023-03-29T23:09:41.177Z,10.95
2023-03-29T23:14:46.182Z,10.97
2023-03-29T23:19:41.557Z,10.97
2023-03-29T23:24:46.602Z,11
2023-03-29T23:29:46.432Z,11.02
2023-03-29T23:34:44.176Z,11.05
2023-03-29T23:39:43.745Z,11.08
2023-03-29T23:44:41.124Z,11.08
2023-03-29T23:49:45.236Z,11.09
2023-03-29T23:54:41.157Z,11.13
2023-03-29T23:59:42.655Z,11.22
